createdAt,value
2022-09-30T00:00:17.298Z,96523.81
2022-09-30T00:02:44.653Z,96522.13
2022-09-30T00:05:11.166Z,96520.44
2022-09-30T00:07:37.685Z,96514.44
2022-09-30T00:10:04.600Z,96523.00
2022-09-30T00:12:31.143Z,96523.00
2022-09-30T00:14:57.688Z,96525.53
2022-09-30T00:17:24.210Z,96527.25
2022-09-30T00:19:50.716Z,96527.25
2022-09-30T00:22:17.224Z,96528.94
2022-09-30T00:24:43.723Z,96529.81
2022-09-30T00:27:10.255Z,96535.81
2022-09-30T00:29:36.756Z,96542.63
2022-09-30T00:32:03.251Z,96540.94
2022-09-30T00:34:29.727Z,96539.19
2022-09-30T00:36:56.544Z,96538.38
2022-09-30T00:39:27.227Z,96540.06
2022-09-30T00:41:58.320Z,96552.00
2022-09-30T00:44:44.271Z,96558.88
2022-09-30T00:47:24.470Z,96564.00
2022-09-30T00:49:51.021Z,96551.16
2022-09-30T00:52:17.504Z,96563.97
2022-09-30T00:54:44.825Z,96572.50
2022-09-30T00:57:11.360Z,96575.94
2022-09-30T00:59:41.590Z,96568.25
2022-09-30T01:02:10.215Z,96573.38
2022-09-30T01:04:36.840Z,96552.78
2022-09-30T01:07:04.767Z,96572.50
2022-09-30T01:09:35.262Z,96571.69
2022-09-30T01:12:11.017Z,96575.06
2022-09-30T01:14:37.639Z,96562.19
2022-09-30T01:17:04.038Z,96572.50
2022-09-30T01:19:58.972Z,96573.34
2022-09-30T01:22:50.425Z,96586.19
2022-09-30T01:25:35.067Z,96581.03
2022-09-30T01:28:18.424Z,96589.59
2022-09-30T01:31:03.591Z,96594.72
2022-09-30T01:33:45.265Z,96581.03
2022-09-30T01:36:35.114Z,96592.13
2022-09-30T01:39:23.773Z,96593.84
2022-09-30T01:42:10.045Z,96582.72
2022-09-30T01:44:54.687Z,96587.03
2022-09-30T01:47:30.035Z,96586.19
2022-09-30T01:50:05.708Z,96590.44
2022-09-30T01:52:37.753Z,96586.19
2022-09-30T01:55:04.207Z,96593.00
2022-09-30T01:58:00.973Z,96581.81
2022-09-30T02:00:27.580Z,96602.41
2022-09-30T02:03:00.484Z,96612.66
2022-09-30T02:05:29.338Z,96608.38
2022-09-30T02:08:10.388Z,96602.38
2022-09-30T02:10:47.537Z,96613.50
2022-09-30T02:13:22.462Z,96616.91
2022-09-30T02:15:52.990Z,96623.75
2022-09-30T02:18:27.100Z,96623.75
2022-09-30T02:20:57.091Z,96610.88
2022-09-30T02:23:28.448Z,96617.78
2022-09-30T02:25:59.548Z,96606.59
2022-09-30T02:28:27.471Z,96603.16
2022-09-30T02:30:56.424Z,96610.94
2022-09-30T02:33:26.728Z,96607.53
2022-09-30T02:35:55.929Z,96612.66
2022-09-30T02:38:24.912Z,96616.88
2022-09-30T02:40:54.838Z,96610.94
2022-09-30T02:43:21.294Z,96605.75
2022-09-30T02:46:10.689Z,96575.72
2022-09-30T02:48:55.179Z,96618.63
2022-09-30T02:51:28.052Z,96619.50
2022-09-30T02:53:54.454Z,96617.78
2022-09-30T02:56:25.158Z,96609.22
2022-09-30T02:58:51.796Z,96606.69
2022-09-30T03:01:18.453Z,96602.41
2022-09-30T03:03:51.859Z,96602.41
2022-09-30T03:06:18.368Z,96586.06
2022-09-30T03:08:45.105Z,96612.66
2022-09-30T03:11:19.442Z,96616.06
2022-09-30T03:14:17.393Z,96628.88
2022-09-30T03:16:43.882Z,96629.75
2022-09-30T03:19:37.388Z,96633.16
2022-09-30T03:22:15.923Z,96628.84
2022-09-30T03:24:57.541Z,96628.03
2022-09-30T03:27:51.864Z,96636.56
2022-09-30T03:30:26.896Z,96637.44
2022-09-30T03:33:26.053Z,96624.53
2022-09-30T03:36:07.182Z,96645.09
2022-09-30T03:38:45.838Z,96645.97
2022-09-30T03:41:15.213Z,96654.47
2022-09-30T03:43:43.884Z,96660.47
2022-09-30T03:46:16.450Z,96661.34
2022-09-30T03:48:42.935Z,96665.59
2022-09-30T03:51:09.459Z,96643.31
2022-09-30T03:53:42.299Z,96667.31
2022-09-30T03:56:08.822Z,96663.91
2022-09-30T03:58:35.585Z,96675.00
2022-09-30T04:01:02.220Z,96673.28
2022-09-30T04:03:28.819Z,96674.16
2022-09-30T04:05:55.522Z,96674.16
2022-09-30T04:08:23.014Z,96675.84
2022-09-30T04:10:49.515Z,96673.31
2022-09-30T04:13:16.020Z,96666.44
2022-09-30T04:15:42.539Z,96677.56
2022-09-30T04:18:09.043Z,96679.31
2022-09-30T04:20:35.532Z,96686.97
2022-09-30T04:23:02.084Z,96687.78
2022-09-30T04:25:28.804Z,96674.94
2022-09-30T04:27:55.270Z,96686.97
2022-09-30T04:30:25.620Z,96681.84
2022-09-30T04:32:53.827Z,96690.38
2022-09-30T04:35:20.336Z,96686.97
2022-09-30T04:37:47.166Z,96692.09
2022-09-30T04:40:14.324Z,96694.66
2022-09-30T04:42:42.908Z,96697.22
2022-09-30T04:45:11.047Z,96698.94
2022-09-30T04:47:37.511Z,96701.47
2022-09-30T04:50:05.234Z,96701.50
2022-09-30T04:52:31.889Z,96698.91
2022-09-30T04:54:58.742Z,96704.03
2022-09-30T04:57:25.467Z,96704.06
2022-09-30T04:59:52.283Z,96705.75
2022-09-30T05:02:18.972Z,96712.63
2022-09-30T05:04:45.571Z,96704.91
2022-09-30T05:07:12.086Z,96712.63
2022-09-30T05:09:38.688Z,96712.63
2022-09-30T05:12:05.206Z,96716.88
2022-09-30T05:14:32.134Z,96722.88
2022-09-30T05:16:58.640Z,96721.13
2022-09-30T05:19:25.225Z,96723.69
2022-09-30T05:21:52.560Z,96726.28
2022-09-30T05:24:19.078Z,96729.69
2022-09-30T05:26:45.542Z,96722.84
2022-09-30T05:29:12.185Z,96728.78
2022-09-30T05:31:38.833Z,96742.50
2022-09-30T05:34:05.390Z,96747.63
2022-09-30T05:36:31.855Z,96752.75
2022-09-30T05:38:58.329Z,96763.00
2022-09-30T05:41:24.834Z,96764.72
2022-09-30T05:43:51.385Z,96763.00
2022-09-30T05:46:18.543Z,96761.31
2022-09-30T05:48:45.303Z,96751.81
2022-09-30T05:51:12.729Z,96760.44
2022-09-30T05:53:39.368Z,96764.72
2022-09-30T05:56:06.747Z,96778.38
2022-09-30T05:58:33.685Z,96795.44
2022-09-30T06:01:12.860Z,96774.94
2022-09-30T06:03:39.885Z,96782.66
2022-09-30T06:06:06.792Z,96770.56
2022-09-30T06:08:33.260Z,96789.50
2022-09-30T06:10:59.965Z,96789.50
2022-09-30T06:13:27.312Z,96796.34
2022-09-30T06:16:00.444Z,96802.28
2022-09-30T06:18:27.515Z,96801.47
2022-09-30T06:21:00.824Z,96810.03
2022-09-30T06:23:27.355Z,96810.84
2022-09-30T06:25:54.279Z,96813.41
2022-09-30T06:28:20.826Z,96814.28
2022-09-30T06:30:47.448Z,96813.41
2022-09-30T06:33:14.152Z,96821.09
2022-09-30T06:35:43.979Z,96829.66
2022-09-30T06:38:10.579Z,96834.78
2022-09-30T06:40:37.270Z,96833.09
2022-09-30T06:43:04.062Z,96833.09
2022-09-30T06:45:33.311Z,96834.78
2022-09-30T06:48:01.032Z,96823.63
2022-09-30T06:50:28.067Z,96830.47
2022-09-30T06:52:59.242Z,96834.75
2022-09-30T06:55:27.185Z,96840.78
2022-09-30T06:57:54.842Z,96843.34
2022-09-30T07:00:21.722Z,96838.22
2022-09-30T07:02:48.899Z,96842.47
2022-09-30T07:05:16.617Z,96845.84
2022-09-30T07:07:43.779Z,96862.13
2022-09-30T07:10:10.442Z,96857.00
2022-09-30T07:12:36.959Z,96853.59
2022-09-30T07:15:03.543Z,96857.00
2022-09-30T07:17:30.110Z,96864.69
2022-09-30T07:19:56.647Z,96864.66
2022-09-30T07:22:34.337Z,96864.69
2022-09-30T07:25:01.603Z,96868.09
2022-09-30T07:27:28.369Z,96866.41
2022-09-30T07:30:08.931Z,96870.69
2022-09-30T07:32:36.974Z,96880.06
2022-09-30T07:35:03.961Z,96876.66
2022-09-30T07:37:33.488Z,96878.38
2022-09-30T07:40:00.035Z,96881.81
2022-09-30T07:42:26.724Z,96887.75
2022-09-30T07:44:53.643Z,96887.75
2022-09-30T07:47:21.255Z,96899.75
2022-09-30T07:49:47.793Z,96902.31
2022-09-30T07:52:14.558Z,96898.88
2022-09-30T07:54:44.269Z,96898.00
2022-09-30T07:57:13.328Z,96891.09
2022-09-30T07:59:40.866Z,96909.13
2022-09-30T08:02:08.354Z,96904.84
2022-09-30T08:04:35.083Z,96905.69
2022-09-30T08:07:02.420Z,96904.00
2022-09-30T08:09:29.633Z,96908.25
2022-09-30T08:11:56.422Z,96890.19
2022-09-30T08:14:24.962Z,96900.56
2022-09-30T08:16:51.740Z,96903.13
2022-09-30T08:19:20.779Z,96911.69
2022-09-30T08:21:47.463Z,96913.38
2022-09-30T08:24:14.064Z,96910.00
2022-09-30T08:26:40.780Z,96912.53
2022-09-30T08:29:07.451Z,96914.25
2022-09-30T08:31:34.115Z,96915.09
2022-09-30T08:34:00.682Z,96918.50
2022-09-30T08:36:27.400Z,96920.25
2022-09-30T08:38:53.933Z,96921.06
2022-09-30T08:41:41.776Z,96923.63
2022-09-30T08:44:20.257Z,96922.81
2022-09-30T08:46:58.206Z,96915.06
2022-09-30T08:49:55.986Z,96919.38
2022-09-30T08:52:49.053Z,96918.50
2022-09-30T08:55:20.844Z,96904.69
2022-09-30T08:57:47.888Z,96926.19
2022-09-30T09:00:16.271Z,96927.06
2022-09-30T09:02:46.209Z,96921.06
2022-09-30T09:05:48.625Z,96921.94
2022-09-30T09:08:21.688Z,96920.19
2022-09-30T09:10:55.999Z,96925.31
2022-09-30T09:13:37.113Z,96928.72
2022-09-30T09:16:25.061Z,96938.97
2022-09-30T09:19:10.983Z,96933.03
2022-09-30T09:21:52.499Z,96935.59
2022-09-30T09:24:27.293Z,96936.41
2022-09-30T09:26:54.849Z,96940.72
2022-09-30T09:29:24.395Z,96941.53
2022-09-30T09:31:51.353Z,96944.09
2022-09-30T09:34:17.936Z,96952.66
2022-09-30T09:37:15.266Z,96955.22
2022-09-30T09:40:12.099Z,96955.22
2022-09-30T09:43:18.612Z,96948.41
2022-09-30T09:45:55.000Z,96948.41
2022-09-30T09:48:21.519Z,96956.09
2022-09-30T09:51:04.063Z,96950.09
2022-09-30T09:53:49.938Z,96950.97
2022-09-30T09:56:23.427Z,96955.25
2022-09-30T09:59:08.808Z,96957.78
2022-09-30T10:01:36.899Z,96956.94
2022-09-30T10:04:32.626Z,96966.38
2022-09-30T10:07:14.372Z,96963.78
2022-09-30T10:09:41.927Z,96956.94
2022-09-30T10:12:08.327Z,96967.19
2022-09-30T10:14:36.080Z,96966.34
2022-09-30T10:17:04.099Z,96979.16
2022-09-30T10:19:32.877Z,96967.91
2022-09-30T10:22:08.630Z,96985.13
2022-09-30T10:24:36.987Z,96987.69
2022-09-30T10:27:03.748Z,96986.00
2022-09-30T10:29:32.385Z,96985.13
2022-09-30T10:32:08.399Z,96987.69
2022-09-30T10:34:36.896Z,96984.31
2022-09-30T10:37:17.509Z,96983.44
2022-09-30T10:39:44.408Z,96970.47
2022-09-30T10:42:25.801Z,96984.31
2022-09-30T10:44:57.483Z,96979.88
2022-09-30T10:47:31.214Z,96997.13
2022-09-30T10:50:03.353Z,96990.25
2022-09-30T10:52:32.323Z,96999.69
2022-09-30T10:54:59.711Z,96997.06
2022-09-30T10:57:29.672Z,96998.81
2022-09-30T11:00:21.880Z,97008.22
2022-09-30T11:03:05.685Z,97005.66
2022-09-30T11:05:35.316Z,97006.50
2022-09-30T11:08:13.801Z,97004.81
2022-09-30T11:11:10.045Z,97005.66
2022-09-30T11:13:48.403Z,96992.81
2022-09-30T11:16:19.306Z,96988.53
2022-09-30T11:19:07.169Z,97004.81
2022-09-30T11:21:39.647Z,96995.38
2022-09-30T11:24:15.480Z,96995.38
2022-09-30T11:27:06.714Z,96986.84
2022-09-30T11:29:42.231Z,96991.13
2022-09-30T11:32:11.827Z,96981.72
2022-09-30T11:34:56.436Z,96980.00
2022-09-30T11:37:39.744Z,96980.88
2022-09-30T11:40:47.943Z,96979.16
2022-09-30T11:43:27.185Z,96975.72
2022-09-30T11:46:15.288Z,96982.56
2022-09-30T11:48:57.946Z,96980.00
2022-09-30T11:51:24.413Z,96983.41
2022-09-30T11:54:09.509Z,96985.13
2022-09-30T11:56:47.056Z,96984.28
2022-09-30T11:59:25.466Z,96984.22
2022-09-30T12:01:52.496Z,96982.47
2022-09-30T12:04:32.112Z,96981.63
2022-09-30T12:07:01.740Z,96988.56
2022-09-30T12:09:34.978Z,96980.88
2022-09-30T12:12:08.519Z,96974.75
2022-09-30T12:14:59.711Z,96994.56
2022-09-30T12:17:34.515Z,96985.84
2022-09-30T12:20:14.815Z,97001.38
2022-09-30T12:22:43.175Z,96998.81
2022-09-30T12:25:31.420Z,96962.75
2022-09-30T12:27:57.947Z,96991.97
2022-09-30T12:30:24.487Z,96990.25
2022-09-30T12:33:05.610Z,96997.13
2022-09-30T12:35:43.418Z,96993.69
2022-09-30T12:38:19.539Z,96987.69
2022-09-30T12:41:19.273Z,96986.00
2022-09-30T12:44:06.956Z,96975.75
2022-09-30T12:47:01.200Z,96978.31
2022-09-30T12:49:27.900Z,96960.28
2022-09-30T12:51:58.883Z,96954.31
2022-09-30T12:54:28.400Z,96976.59
2022-09-30T12:56:56.787Z,96970.59
2022-09-30T12:59:28.399Z,96968.06
2022-09-30T13:01:54.940Z,96964.59
2022-09-30T13:04:37.083Z,96968.91
2022-09-30T13:07:03.448Z,96971.47
2022-09-30T13:09:30.717Z,96962.00
2022-09-30T13:12:00.282Z,96968.06
2022-09-30T13:14:45.277Z,96968.06
2022-09-30T13:17:11.765Z,96979.16
2022-09-30T13:19:43.286Z,96974.06
2022-09-30T13:22:18.842Z,96968.91
2022-09-30T13:25:03.198Z,96967.19
2022-09-30T13:27:36.505Z,96980.00
2022-09-30T13:30:18.059Z,96987.69
2022-09-30T13:32:48.087Z,96991.13
2022-09-30T13:35:37.191Z,96990.25
2022-09-30T13:38:13.071Z,96991.13
2022-09-30T13:41:21.146Z,96993.69
2022-09-30T13:44:19.997Z,96993.69
2022-09-30T13:46:54.422Z,97000.50
2022-09-30T13:49:43.792Z,96997.94
2022-09-30T13:52:32.046Z,96998.81
2022-09-30T13:55:00.783Z,96987.69
2022-09-30T13:57:42.097Z,96972.22
2022-09-30T14:00:13.093Z,96986.84
2022-09-30T14:03:10.660Z,96991.97
2022-09-30T14:05:46.328Z,96992.81
2022-09-30T14:08:34.876Z,96986.84
2022-09-30T14:11:22.758Z,96982.56
2022-09-30T14:14:12.509Z,96979.16
2022-09-30T14:17:16.681Z,96993.69
2022-09-30T14:20:01.429Z,96982.56
2022-09-30T14:22:30.066Z,96970.53
2022-09-30T14:24:56.803Z,96961.91
2022-09-30T14:27:23.245Z,96984.31
2022-09-30T14:30:19.130Z,96974.88
2022-09-30T14:32:46.236Z,96983.44
2022-09-30T14:35:17.064Z,96962.75
2022-09-30T14:38:05.349Z,96953.28
2022-09-30T14:40:36.346Z,96981.69
2022-09-30T14:43:04.946Z,96984.28
2022-09-30T14:45:33.387Z,96992.81
2022-09-30T14:48:03.524Z,96999.59
2022-09-30T14:50:31.299Z,97007.38
2022-09-30T14:52:59.135Z,97005.59
2022-09-30T14:55:35.507Z,97008.19
2022-09-30T14:58:21.611Z,97006.50
2022-09-30T15:00:56.098Z,96997.97
2022-09-30T15:03:22.612Z,97001.34
2022-09-30T15:05:49.112Z,96998.81
2022-09-30T15:08:20.009Z,96997.03
2022-09-30T15:10:51.841Z,97002.09
2022-09-30T15:13:19.107Z,96998.63
2022-09-30T15:15:45.748Z,97014.19
2022-09-30T15:18:35.744Z,97011.63
2022-09-30T15:21:08.970Z,96994.38
2022-09-30T15:23:36.227Z,96977.88
2022-09-30T15:26:02.765Z,97031.25
2022-09-30T15:28:29.368Z,97019.31
2022-09-30T15:30:57.450Z,97021.88
2022-09-30T15:33:24.854Z,97020.19
2022-09-30T15:35:53.087Z,97001.19
2022-09-30T15:38:21.528Z,97023.50
2022-09-30T15:40:58.969Z,97029.56
2022-09-30T15:43:36.914Z,97045.81
2022-09-30T15:46:27.686Z,97042.38
2022-09-30T15:48:59.201Z,97044.09
2022-09-30T15:51:31.268Z,97044.09
2022-09-30T15:54:02.556Z,97051.78
2022-09-30T15:56:30.860Z,97057.75
2022-09-30T15:59:03.661Z,97062.88
2022-09-30T16:01:44.216Z,97055.19
2022-09-30T16:04:16.669Z,97054.28
2022-09-30T16:06:44.580Z,97053.47
2022-09-30T16:09:20.062Z,97056.88
2022-09-30T16:11:47.781Z,97059.44
2022-09-30T16:14:26.929Z,97061.16
2022-09-30T16:16:55.186Z,97034.41
2022-09-30T16:19:21.810Z,97051.63
2022-09-30T16:21:51.677Z,97058.59
2022-09-30T16:24:21.043Z,97063.72
2022-09-30T16:26:47.674Z,97053.47
2022-09-30T16:29:17.610Z,97056.88
2022-09-30T16:31:44.916Z,97067.13
2022-09-30T16:34:22.325Z,97079.09
2022-09-30T16:36:49.032Z,97044.75
2022-09-30T16:39:16.576Z,97067.13
2022-09-30T16:41:43.349Z,97069.69
2022-09-30T16:44:10.240Z,97065.44
2022-09-30T16:46:37.017Z,97068.88
2022-09-30T16:49:14.957Z,97068.00
2022-09-30T16:51:42.125Z,97070.56
2022-09-30T16:54:09.071Z,96889.50
2022-09-30T16:56:35.629Z,97057.66
2022-09-30T16:59:02.425Z,97060.28
2022-09-30T17:01:29.237Z,97068.84
2022-09-30T17:03:57.038Z,97065.44
2022-09-30T17:06:28.284Z,97073.13
2022-09-30T17:08:55.361Z,97055.94
2022-09-30T17:11:26.915Z,97055.00
2022-09-30T17:13:53.416Z,97067.97
2022-09-30T17:16:19.974Z,97075.69
2022-09-30T17:18:46.589Z,97083.34
2022-09-30T17:21:13.078Z,97077.38
2022-09-30T17:23:39.621Z,97072.16
2022-09-30T17:26:06.474Z,97090.19
2022-09-30T17:28:34.659Z,97072.06
2022-09-30T17:31:01.292Z,97113.25
2022-09-30T17:33:32.004Z,97103.00
2022-09-30T17:36:02.426Z,97099.59
2022-09-30T17:38:29.193Z,97099.59
2022-09-30T17:41:14.445Z,97100.41
2022-09-30T17:43:40.993Z,97109.00
2022-09-30T17:46:07.599Z,97110.69
2022-09-30T17:48:34.587Z,97097.69
2022-09-30T17:51:01.088Z,97115.00
2022-09-30T17:53:29.212Z,97116.69
2022-09-30T17:56:10.299Z,97121.81
2022-09-30T17:58:36.849Z,97122.69
2022-09-30T18:01:09.645Z,97120.94
2022-09-30T18:03:36.490Z,97126.97
2022-09-30T18:06:03.066Z,97126.94
2022-09-30T18:08:29.769Z,97129.50
2022-09-30T18:10:57.387Z,97127.81
2022-09-30T18:13:27.228Z,97127.81
2022-09-30T18:15:55.465Z,97124.38
2022-09-30T18:18:21.985Z,97132.06
2022-09-30T18:20:49.293Z,97130.38
2022-09-30T18:23:18.769Z,97126.94
2022-09-30T18:25:46.081Z,97136.31
2022-09-30T18:28:12.799Z,97128.63
2022-09-30T18:30:39.881Z,97131.19
2022-09-30T18:33:07.255Z,97134.63
2022-09-30T18:35:37.604Z,97136.31
2022-09-30T18:38:04.495Z,97137.19
2022-09-30T18:40:31.717Z,97134.63
2022-09-30T18:43:01.739Z,97125.22
2022-09-30T18:45:29.569Z,97121.69
2022-09-30T18:47:57.641Z,97119.25
2022-09-30T18:50:24.881Z,97126.06
2022-09-30T18:52:52.329Z,97114.84
2022-09-30T18:55:19.552Z,97130.38
2022-09-30T18:57:50.297Z,97129.50
2022-09-30T19:00:17.683Z,97125.25
2022-09-30T19:02:46.986Z,97122.56
2022-09-30T19:05:14.409Z,97132.94
2022-09-30T19:07:41.005Z,97133.78
2022-09-30T19:10:08.583Z,97129.50
2022-09-30T19:12:38.951Z,97130.38
2022-09-30T19:15:07.159Z,97131.22
2022-09-30T19:17:33.867Z,97124.25
2022-09-30T19:20:00.821Z,97119.13
2022-09-30T19:22:28.285Z,97136.34
2022-09-30T19:24:55.109Z,97145.75
2022-09-30T19:27:23.385Z,97145.75
2022-09-30T19:29:50.359Z,97133.75
2022-09-30T19:32:18.725Z,97131.19
2022-09-30T19:34:52.604Z,97127.78
2022-09-30T19:37:27.566Z,97126.06
2022-09-30T19:39:54.789Z,97124.38
2022-09-30T19:42:21.692Z,97124.38
2022-09-30T19:44:48.267Z,97126.06
2022-09-30T19:47:15.617Z,97115.81
2022-09-30T19:49:42.495Z,97114.13
2022-09-30T19:52:17.953Z,97120.94
2022-09-30T19:54:47.236Z,97115.81
2022-09-30T19:57:14.004Z,97118.38
2022-09-30T19:59:40.542Z,97109.84
2022-09-30T20:02:07.110Z,97108.13
2022-09-30T20:04:34.395Z,97107.28
2022-09-30T20:07:01.342Z,97107.31
2022-09-30T20:09:27.930Z,97110.69
2022-09-30T20:11:54.575Z,97115.00
2022-09-30T20:14:39.340Z,97110.69
2022-09-30T20:17:05.905Z,97104.72
2022-09-30T20:19:32.384Z,97105.56
2022-09-30T20:21:59.060Z,97103.88
2022-09-30T20:24:26.097Z,97108.13
2022-09-30T20:26:52.665Z,97109.84
2022-09-30T20:29:20.630Z,97117.56
2022-09-30T20:31:48.105Z,97117.53
2022-09-30T20:34:15.359Z,97116.69
2022-09-30T20:36:41.869Z,97100.19
2022-09-30T20:39:08.476Z,97117.50
2022-09-30T20:41:36.707Z,97121.75
2022-09-30T20:44:07.520Z,97129.44
2022-09-30T20:46:34.016Z,97132.88
2022-09-30T20:49:00.922Z,97139.72
2022-09-30T20:51:28.236Z,97141.41
2022-09-30T20:53:55.067Z,97138.81
2022-09-30T20:56:22.954Z,97143.16
2022-09-30T20:58:49.782Z,97142.28
2022-09-30T21:01:20.871Z,97136.28
2022-09-30T21:03:50.204Z,97132.88
2022-09-30T21:06:26.862Z,97131.94
2022-09-30T21:08:55.094Z,97135.44
2022-09-30T21:11:23.338Z,97132.88
2022-09-30T21:13:52.149Z,97123.47
2022-09-30T21:16:22.709Z,97130.31
2022-09-30T21:18:52.693Z,97124.28
2022-09-30T21:21:20.156Z,97134.59
2022-09-30T21:23:46.726Z,97131.16
2022-09-30T21:26:14.762Z,97131.16
2022-09-30T21:28:44.356Z,97114.88
2022-09-30T21:31:27.386Z,97130.31
2022-09-30T21:34:00.677Z,97113.19
2022-09-30T21:36:27.615Z,97111.41
2022-09-30T21:38:54.959Z,97114.91
2022-09-30T21:41:21.656Z,97117.47
2022-09-30T21:43:48.268Z,97120.03
2022-09-30T21:46:15.273Z,97109.78
2022-09-30T21:48:42.633Z,97115.75
2022-09-30T21:51:09.834Z,97114.91
2022-09-30T21:53:36.568Z,97121.72
2022-09-30T21:56:03.561Z,97123.44
2022-09-30T21:58:31.706Z,97126.00
2022-09-30T22:01:03.561Z,97121.72
2022-09-30T22:03:31.767Z,97128.53
2022-09-30T22:05:58.701Z,97125.97
2022-09-30T22:08:25.288Z,97139.66
2022-09-30T22:10:51.832Z,97134.50
2022-09-30T22:13:18.480Z,97137.03
2022-09-30T22:15:45.695Z,97133.66
2022-09-30T22:18:16.481Z,97141.34
2022-09-30T22:20:43.909Z,97140.50
2022-09-30T22:23:10.586Z,97137.00
2022-09-30T22:25:37.155Z,97149.88
2022-09-30T22:28:04.610Z,97151.59
2022-09-30T22:30:31.564Z,97162.72
2022-09-30T22:33:16.465Z,97167.84
2022-09-30T22:36:01.206Z,97167.75
2022-09-30T22:38:27.723Z,97180.66
2022-09-30T22:40:59.437Z,97186.66
2022-09-30T22:43:26.627Z,97189.22
2022-09-30T22:46:07.513Z,97193.47
2022-09-30T22:48:34.270Z,97184.09
2022-09-30T22:51:00.893Z,97196.91
2022-09-30T22:53:28.017Z,97180.50
2022-09-30T22:55:54.784Z,97193.41
2022-09-30T22:58:24.226Z,97193.47
2022-09-30T23:00:58.606Z,97201.16
2022-09-30T23:03:27.988Z,97201.16
2022-09-30T23:06:05.166Z,97194.28
2022-09-30T23:08:33.371Z,97205.38
2022-09-30T23:11:03.045Z,97207.13
2022-09-30T23:13:30.440Z,97212.25
2022-09-30T23:16:00.362Z,97218.22
2022-09-30T23:18:30.068Z,97225.88
2022-09-30T23:20:57.648Z,97233.59
2022-09-30T23:23:24.156Z,97237.88
2022-09-30T23:26:13.191Z,97232.72
2022-09-30T23:28:39.821Z,97241.28
2022-09-30T23:31:10.300Z,97243.84
2022-09-30T23:33:37.519Z,97236.16
2022-09-30T23:36:05.053Z,97233.59
2022-09-30T23:38:31.608Z,97236.16
2022-09-30T23:41:00.741Z,97236.16
2022-09-30T23:43:31.287Z,97228.47
2022-09-30T23:45:58.309Z,97224.13
2022-09-30T23:48:24.873Z,97219.88
2022-09-30T23:50:51.668Z,97225.91
2022-09-30T23:53:18.360Z,97225.06
2022-09-30T23:55:54.954Z,97225.06
2022-09-30T23:58:22.224Z,97225.88
